Aérodrome :
LOGIN :

S'inscrire | Disclaimer

   EN    FR    IT 

 










Légende :    VFR   VFR Marginal   IFR   IFR Intensif   IFR Très Intensif
Visi : 
Plafond : 
>= 8 km
>= 3000ft
5 à 8 km
1000 à 3000 ft
1500m à 5 km
500 à 1000 ft
800 à 1500m
200 à 500 ft
< 800m
< 200 ft
Symboles :   Orages  Brouillard  Fortes neiges  Fortes précipitations  Vent > 20 kt
SIGMETs :   Divers  Orages  Givrage  Turbulence  Onde Orograph.  Cendres Volcan.






- Altitude de l'aérodrome : 24 ft
- Code IATA : SGD


EKSB - Sonderborg

DERNIER METAR :
  • 221620Z AUTO 25018G32KT 220V280 9999NDV BKN033/// 07/03 Q1004

METARs EXPIRÉS :
  • 221550Z AUTO 26017G28KT 220V280 9999NDV FEW038/// FEW052/// 06/03 Q1003
  • 221520Z AUTO 26014KT 230V300 9999NDV SCT021/// SCT097/// 06/03 Q1003
  • 221450Z AUTO 27019G41KT 230V300 9999NDV -RA BKN027/// 06/02 Q1003
  • 221420Z AUTO 26023G43KT 230V290 9999NDV BKN028/// BKN110/// 09/03 Q1002
  • 221350Z AUTO 26024G39KT 230V300 9999NDV BKN027/// BKN110/// 09/04 Q1002

Prévision TAF périmée.



MET'MAP, la Météo Aéronautique d'un coup d'oeil ! - Copyright ORBIFLY Décembre 2007 - Disclaimer

ORBIFLY MET'MAP TEAM :

Programmation & Développement : Alexandra Zaïnal
Sur une idée originale de : Baudouin d'Aumeries
Assistance à la programmation : Marc-Olivier Méhu
Soutien technique & logistique : Manuel Goepfert

Contact : metmap@orbifly.com




SOURCES & CREDITS :

   NOAA